📊 Raw Sensor Data
Showing records 49401 to 49425 of 85,118 total
| ID | Distance (ft) | Battery V | Battery A | Int Temp (°F) | Int Humid (%) | Ext Temp (°F) | Solar V | RSSI | SNR | Time Stamp |
|---|---|---|---|---|---|---|---|---|---|---|
| 35730 | -- | 4.16 | 0 | 76 | 42 | 66 | 5.10 | -84 | 8 | 03/22/2025 06:01 PM |
| 35729 | 15.3 | 4.05 | 0 | 78 | 40 | 65 | 5.10 | -84 | 7 | 03/22/2025 05:45 PM |
| 35728 | 15.4 | 4.05 | 0 | 78 | 39 | 68 | 5.10 | -85 | 7 | 03/22/2025 05:30 PM |
| 35727 | 15.3 | 4.05 | 0 | 75 | 40 | 66 | 5.10 | -84 | 8 | 03/22/2025 05:15 PM |
| 35726 | -- | 4.05 | 0 | 78 | 36 | 67 | 5.10 | -84 | 8 | 03/22/2025 05:00 PM |
| 35725 | -- | 4.05 | 0 | 70 | 40 | 65 | 5.10 | -84 | 8 | 03/22/2025 04:45 PM |
| 35724 | -- | 4.08 | 0 | 69 | 40 | 64 | 5.10 | -85 | 9 | 03/22/2025 04:31 PM |
| 35723 | -- | 4.05 | 0 | 69 | 40 | 64 | 5.10 | -84 | 8 | 03/22/2025 04:16 PM |
| 35722 | -- | 4.05 | 0 | 69 | 39 | 64 | 5.10 | -84 | 8 | 03/22/2025 04:00 PM |
| 35721 | -- | 4.06 | 0 | 66 | 41 | 63 | 5.10 | -82 | 8 | 03/22/2025 03:45 PM |
| 35720 | -- | 4.12 | 53 | 66 | 42 | 62 | 4.50 | -81 | 8 | 03/22/2025 03:30 PM |
| 35719 | -- | 4.04 | 0 | 69 | 40 | 63 | 5.10 | -82 | 9 | 03/22/2025 03:15 PM |
| 35718 | -- | 4.05 | 0 | 69 | 40 | 64 | 5.10 | -81 | 9 | 03/22/2025 03:00 PM |
| 35717 | -- | 4.04 | 0 | 68 | 40 | 64 | 5.10 | -82 | 9 | 03/22/2025 02:45 PM |
| 35716 | -- | 4.04 | 0 | 68 | 41 | 63 | 5.10 | -83 | 8 | 03/22/2025 02:31 PM |
| 35715 | -- | 4.04 | 0 | 67 | 41 | 63 | 5.10 | -82 | 8 | 03/22/2025 02:15 PM |
| 35714 | -- | 4.04 | 0 | 67 | 41 | 63 | 5.10 | -82 | 8 | 03/22/2025 02:00 PM |
| 35713 | -- | 4.04 | 0 | 68 | 41 | 63 | 5.10 | -83 | 8 | 03/22/2025 01:45 PM |
| 35712 | -- | 4.04 | 0 | 68 | 41 | 64 | 5.10 | -81 | 8 | 03/22/2025 01:30 PM |
| 35711 | -- | 4.04 | 0 | 68 | 41 | 63 | 5.10 | -82 | 8 | 03/22/2025 01:15 PM |
| 35710 | -- | 4.14 | 69 | 67 | 41 | 64 | 4.50 | -80 | 7 | 03/22/2025 01:00 PM |
| 35709 | -- | 4.10 | 0 | 68 | 41 | 66 | 5.10 | -81 | 8 | 03/22/2025 12:45 PM |
| 35708 | -- | 4.08 | 0 | 69 | 40 | 64 | 5.10 | -81 | 8 | 03/22/2025 12:30 PM |
| 35707 | -- | 4.04 | 5 | 70 | 39 | 64 | 5.10 | -82 | 7 | 03/22/2025 12:15 PM |
| 35706 | -- | 4.04 | 0 | 69 | 39 | 64 | 5.10 | -81 | 9 | 03/22/2025 12:00 PM |